sensor_id;sensor_type;location;lat;lon;timestamp;P1;durP1;ratioP1;P2;durP2;ratioP2
71777;SDS011;59609;52.430;4.668;2024-03-29T00:01:55;1.60;;;1.08;;
71777;SDS011;59609;52.430;4.668;2024-03-29T00:04:20;5.05;;;1.17;;
71777;SDS011;59609;52.430;4.668;2024-03-29T00:06:45;2.13;;;1.40;;
71777;SDS011;59609;52.430;4.668;2024-03-29T00:09:11;4.57;;;1.17;;
71777;SDS011;59609;52.430;4.668;2024-03-29T00:11:36;4.30;;;1.15;;
71777;SDS011;59609;52.430;4.668;2024-03-29T00:14:01;4.35;;;1.13;;
71777;SDS011;59609;52.430;4.668;2024-03-29T00:16:27;4.85;;;1.40;;
71777;SDS011;59609;52.430;4.668;2024-03-29T00:18:52;7.30;;;0.95;;
71777;SDS011;59609;52.430;4.668;2024-03-29T00:21:18;7.20;;;1.30;;
71777;SDS011;59609;52.430;4.668;2024-03-29T00:23:43;3.13;;;0.93;;
71777;SDS011;59609;52.430;4.668;2024-03-29T00:26:12;5.05;;;1.40;;
71777;SDS011;59609;52.430;4.668;2024-03-29T00:28:38;8.35;;;0.70;;
71777;SDS011;59609;52.430;4.668;2024-03-29T00:31:04;3.90;;;1.20;;
71777;SDS011;59609;52.430;4.668;2024-03-29T00:33:29;4.22;;;1.27;;
71777;SDS011;59609;52.430;4.668;2024-03-29T00:35:55;1.73;;;1.20;;
71777;SDS011;59609;52.430;4.668;2024-03-29T00:38:21;5.07;;;1.60;;
71777;SDS011;59609;52.430;4.668;2024-03-29T00:40:49;6.93;;;1.17;;
71777;SDS011;59609;52.430;4.668;2024-03-29T00:43:15;5.72;;;1.38;;
71777;SDS011;59609;52.430;4.668;2024-03-29T00:45:40;4.80;;;1.33;;
71777;SDS011;59609;52.430;4.668;2024-03-29T00:48:06;5.55;;;1.05;;
71777;SDS011;59609;52.430;4.668;2024-03-29T00:50:31;4.38;;;1.05;;
71777;SDS011;59609;52.430;4.668;2024-03-29T00:52:57;2.92;;;0.93;;
71777;SDS011;59609;52.430;4.668;2024-03-29T00:55:22;3.10;;;1.20;;
71777;SDS011;59609;52.430;4.668;2024-03-29T00:57:48;3.92;;;0.90;;
71777;SDS011;59609;52.430;4.668;2024-03-29T01:00:13;6.82;;;1.40;;
71777;SDS011;59609;52.430;4.668;2024-03-29T01:02:39;4.22;;;1.00;;
71777;SDS011;59609;52.430;4.668;2024-03-29T01:05:05;3.40;;;1.15;;
71777;SDS011;59609;52.430;4.668;2024-03-29T01:07:31;3.85;;;1.08;;
71777;SDS011;59609;52.430;4.668;2024-03-29T01:09:56;4.03;;;1.02;;
71777;SDS011;59609;52.430;4.668;2024-03-29T01:12:22;6.55;;;1.25;;
71777;SDS011;59609;52.430;4.668;2024-03-29T01:14:47;3.13;;;0.93;;
71777;SDS011;59609;52.430;4.668;2024-03-29T01:17:12;1.58;;;1.08;;
71777;SDS011;59609;52.430;4.668;2024-03-29T01:19:38;5.85;;;1.10;;
71777;SDS011;59609;52.430;4.668;2024-03-29T01:22:03;2.10;;;1.00;;
71777;SDS011;59609;52.430;4.668;2024-03-29T01:24:29;2.17;;;0.85;;
71777;SDS011;59609;52.430;4.668;2024-03-29T01:26:55;1.00;;;0.68;;
71777;SDS011;59609;52.430;4.668;2024-03-29T01:29:20;6.05;;;1.35;;
71777;SDS011;59609;52.430;4.668;2024-03-29T01:31:45;3.83;;;1.10;;
71777;SDS011;59609;52.430;4.668;2024-03-29T01:34:11;5.43;;;1.50;;
71777;SDS011;59609;52.430;4.668;2024-03-29T01:36:36;2.35;;;1.10;;
71777;SDS011;59609;52.430;4.668;2024-03-29T01:39:01;4.78;;;1.60;;
71777;SDS011;59609;52.430;4.668;2024-03-29T01:41:27;3.17;;;1.08;;
71777;SDS011;59609;52.430;4.668;2024-03-29T01:43:53;2.72;;;1.25;;
71777;SDS011;59609;52.430;4.668;2024-03-29T01:46:22;4.40;;;1.13;;
71777;SDS011;59609;52.430;4.668;2024-03-29T01:48:51;5.75;;;1.40;;
71777;SDS011;59609;52.430;4.668;2024-03-29T01:51:19;4.32;;;1.35;;
71777;SDS011;59609;52.430;4.668;2024-03-29T01:53:50;4.40;;;1.00;;
71777;SDS011;59609;52.430;4.668;2024-03-29T01:56:16;4.65;;;1.50;;
71777;SDS011;59609;52.430;4.668;2024-03-29T01:58:42;3.50;;;1.15;;
71777;SDS011;59609;52.430;4.668;2024-03-29T02:01:09;4.78;;;1.10;;
71777;SDS011;59609;52.430;4.668;2024-03-29T02:03:36;1.90;;;0.77;;
71777;SDS011;59609;52.430;4.668;2024-03-29T02:06:02;4.10;;;1.40;;
71777;SDS011;59609;52.430;4.668;2024-03-29T02:08:28;5.20;;;1.02;;
71777;SDS011;59609;52.430;4.668;2024-03-29T02:10:54;4.00;;;1.00;;
71777;SDS011;59609;52.430;4.668;2024-03-29T02:13:21;5.82;;;1.08;;
71777;SDS011;59609;52.430;4.668;2024-03-29T02:15:46;5.60;;;1.65;;
71777;SDS011;59609;52.430;4.668;2024-03-29T02:18:11;6.20;;;1.48;;
71777;SDS011;59609;52.430;4.668;2024-03-29T02:20:37;2.65;;;1.20;;
71777;SDS011;59609;52.430;4.668;2024-03-29T02:23:06;3.30;;;1.30;;
71777;SDS011;59609;52.430;4.668;2024-03-29T02:25:33;5.30;;;1.30;;
71777;SDS011;59609;52.430;4.668;2024-03-29T02:28:00;3.30;;;1.35;;
71777;SDS011;59609;52.430;4.668;2024-03-29T02:30:27;7.30;;;1.08;;
71777;SDS011;59609;52.430;4.668;2024-03-29T02:32:55;4.28;;;1.48;;
71777;SDS011;59609;52.430;4.668;2024-03-29T02:35:20;6.32;;;2.25;;
71777;SDS011;59609;52.430;4.668;2024-03-29T02:37:46;8.68;;;2.17;;
71777;SDS011;59609;52.430;4.668;2024-03-29T02:40:11;2.55;;;1.63;;
71777;SDS011;59609;52.430;4.668;2024-03-29T02:42:37;3.97;;;1.85;;
71777;SDS011;59609;52.430;4.668;2024-03-29T02:45:03;5.63;;;1.75;;
71777;SDS011;59609;52.430;4.668;2024-03-29T02:47:29;10.18;;;3.72;;
71777;SDS011;59609;52.430;4.668;2024-03-29T02:49:54;7.32;;;3.00;;
71777;SDS011;59609;52.430;4.668;2024-03-29T02:52:19;4.15;;;2.15;;
71777;SDS011;59609;52.430;4.668;2024-03-29T02:54:45;4.68;;;1.45;;
71777;SDS011;59609;52.430;4.668;2024-03-29T02:57:10;5.95;;;1.30;;
71777;SDS011;59609;52.430;4.668;2024-03-29T02:59:35;4.65;;;1.20;;
71777;SDS011;59609;52.430;4.668;2024-03-29T03:02:01;2.75;;;1.00;;
71777;SDS011;59609;52.430;4.668;2024-03-29T03:04:26;1.10;;;1.00;;
71777;SDS011;59609;52.430;4.668;2024-03-29T03:06:52;3.33;;;0.95;;
71777;SDS011;59609;52.430;4.668;2024-03-29T03:09:17;3.70;;;1.70;;
71777;SDS011;59609;52.430;4.668;2024-03-29T03:12:01;4.85;;;1.20;;
71777;SDS011;59609;52.430;4.668;2024-03-29T03:14:26;3.67;;;1.30;;
71777;SDS011;59609;52.430;4.668;2024-03-29T03:16:52;5.25;;;1.10;;
71777;SDS011;59609;52.430;4.668;2024-03-29T03:19:18;5.47;;;1.60;;
71777;SDS011;59609;52.430;4.668;2024-03-29T03:21:43;3.63;;;1.20;;
71777;SDS011;59609;52.430;4.668;2024-03-29T03:24:09;7.05;;;1.45;;
71777;SDS011;59609;52.430;4.668;2024-03-29T03:26:35;3.60;;;1.10;;
71777;SDS011;59609;52.430;4.668;2024-03-29T03:29:00;5.45;;;1.38;;
71777;SDS011;59609;52.430;4.668;2024-03-29T03:31:26;5.72;;;1.15;;
71777;SDS011;59609;52.430;4.668;2024-03-29T03:33:51;4.15;;;1.27;;
71777;SDS011;59609;52.430;4.668;2024-03-29T03:36:17;4.05;;;1.20;;
71777;SDS011;59609;52.430;4.668;2024-03-29T03:38:42;2.92;;;0.90;;
71777;SDS011;59609;52.430;4.668;2024-03-29T03:41:07;2.33;;;1.00;;
71777;SDS011;59609;52.430;4.668;2024-03-29T03:43:33;2.03;;;1.40;;
71777;SDS011;59609;52.430;4.668;2024-03-29T03:46:01;4.22;;;1.13;;
71777;SDS011;59609;52.430;4.668;2024-03-29T03:48:27;6.15;;;1.65;;
71777;SDS011;59609;52.430;4.668;2024-03-29T03:50:54;2.25;;;0.90;;
71777;SDS011;59609;52.430;4.668;2024-03-29T03:53:20;6.38;;;1.15;;
71777;SDS011;59609;52.430;4.668;2024-03-29T03:55:45;2.35;;;1.25;;
71777;SDS011;59609;52.430;4.668;2024-03-29T03:58:11;3.72;;;0.77;;
71777;SDS011;59609;52.430;4.668;2024-03-29T04:00:37;3.60;;;1.40;;
71777;SDS011;59609;52.430;4.668;2024-03-29T04:03:02;2.25;;;1.08;;
71777;SDS011;59609;52.430;4.668;2024-03-29T04:05:28;1.42;;;1.33;;
71777;SDS011;59609;52.430;4.668;2024-03-29T04:07:56;2.15;;;0.80;;
71777;SDS011;59609;52.430;4.668;2024-03-29T04:10:22;4.00;;;1.10;;
71777;SDS011;59609;52.430;4.668;2024-03-29T04:12:47;3.03;;;1.10;;
71777;SDS011;59609;52.430;4.668;2024-03-29T04:15:14;6.47;;;1.63;;
71777;SDS011;59609;52.430;4.668;2024-03-29T04:17:40;1.02;;;0.65;;
71777;SDS011;59609;52.430;4.668;2024-03-29T04:20:06;1.75;;;1.60;;
71777;SDS011;59609;52.430;4.668;2024-03-29T04:22:31;3.45;;;1.05;;
71777;SDS011;59609;52.430;4.668;2024-03-29T04:24:56;1.98;;;0.90;;
71777;SDS011;59609;52.430;4.668;2024-03-29T04:27:22;2.75;;;0.77;;
71777;SDS011;59609;52.430;4.668;2024-03-29T04:29:50;1.83;;;0.88;;
71777;SDS011;59609;52.430;4.668;2024-03-29T04:32:16;4.93;;;1.25;;
71777;SDS011;59609;52.430;4.668;2024-03-29T04:34:41;2.05;;;0.70;;
71777;SDS011;59609;52.430;4.668;2024-03-29T04:37:07;1.00;;;0.77;;
71777;SDS011;59609;52.430;4.668;2024-03-29T04:39:32;0.80;;;0.60;;
71777;SDS011;59609;52.430;4.668;2024-03-29T04:41:58;1.95;;;0.82;;
71777;SDS011;59609;52.430;4.668;2024-03-29T04:44:27;2.30;;;0.88;;
71777;SDS011;59609;52.430;4.668;2024-03-29T04:46:53;3.25;;;0.80;;
71777;SDS011;59609;52.430;4.668;2024-03-29T04:49:19;1.58;;;0.77;;
71777;SDS011;59609;52.430;4.668;2024-03-29T04:51:51;2.05;;;0.90;;
71777;SDS011;59609;52.430;4.668;2024-03-29T04:54:16;1.52;;;0.52;;
71777;SDS011;59609;52.430;4.668;2024-03-29T04:56:42;1.67;;;0.85;;
71777;SDS011;59609;52.430;4.668;2024-03-29T04:59:07;1.55;;;0.90;;
71777;SDS011;59609;52.430;4.668;2024-03-29T05:01:35;0.73;;;0.50;;
71777;SDS011;59609;52.430;4.668;2024-03-29T05:04:00;1.85;;;0.70;;
71777;SDS011;59609;52.430;4.668;2024-03-29T05:06:26;2.38;;;0.68;;
71777;SDS011;59609;52.430;4.668;2024-03-29T05:08:52;2.97;;;1.05;;
71777;SDS011;59609;52.430;4.668;2024-03-29T05:11:17;0.73;;;0.68;;
71777;SDS011;59609;52.430;4.668;2024-03-29T05:13:44;0.90;;;0.77;;
71777;SDS011;59609;52.430;4.668;2024-03-29T05:16:09;2.05;;;1.25;;
71777;SDS011;59609;52.430;4.668;2024-03-29T05:18:35;0.95;;;0.80;;
71777;SDS011;59609;52.430;4.668;2024-03-29T05:21:00;1.98;;;0.95;;
71777;SDS011;59609;52.430;4.668;2024-03-29T05:23:25;0.65;;;0.65;;
71777;SDS011;59609;52.430;4.668;2024-03-29T05:25:51;0.50;;;0.30;;
71777;SDS011;59609;52.430;4.668;2024-03-29T05:28:17;2.33;;;1.00;;
71777;SDS011;59609;52.430;4.668;2024-03-29T05:30:43;0.90;;;0.80;;
71777;SDS011;59609;52.430;4.668;2024-03-29T05:33:08;1.60;;;1.05;;
71777;SDS011;59609;52.430;4.668;2024-03-29T05:35:33;0.80;;;0.80;;
71777;SDS011;59609;52.430;4.668;2024-03-29T05:37:59;1.38;;;0.90;;
71777;SDS011;59609;52.430;4.668;2024-03-29T05:40:24;1.02;;;0.60;;
71777;SDS011;59609;52.430;4.668;2024-03-29T05:42:53;1.67;;;1.02;;
71777;SDS011;59609;52.430;4.668;2024-03-29T05:45:26;0.68;;;0.50;;
71777;SDS011;59609;52.430;4.668;2024-03-29T05:47:55;0.75;;;0.70;;
71777;SDS011;59609;52.430;4.668;2024-03-29T05:50:23;1.73;;;0.95;;
71777;SDS011;59609;52.430;4.668;2024-03-29T05:52:49;1.42;;;0.80;;
71777;SDS011;59609;52.430;4.668;2024-03-29T05:55:15;2.38;;;0.77;;
71777;SDS011;59609;52.430;4.668;2024-03-29T05:57:40;1.45;;;0.43;;
71777;SDS011;59609;52.430;4.668;2024-03-29T06:00:07;0.73;;;0.73;;
71777;SDS011;59609;52.430;4.668;2024-03-29T06:02:36;0.80;;;0.50;;
71777;SDS011;59609;52.430;4.668;2024-03-29T06:05:01;2.85;;;0.93;;
71777;SDS011;59609;52.430;4.668;2024-03-29T06:07:27;1.75;;;0.73;;
71777;SDS011;59609;52.430;4.668;2024-03-29T06:09:54;1.65;;;0.88;;
71777;SDS011;59609;52.430;4.668;2024-03-29T06:12:20;1.00;;;0.73;;
71777;SDS011;59609;52.430;4.668;2024-03-29T06:14:45;2.35;;;0.57;;
71777;SDS011;59609;52.430;4.668;2024-03-29T06:17:29;1.52;;;0.88;;
71777;SDS011;59609;52.430;4.668;2024-03-29T06:19:55;0.60;;;0.50;;
71777;SDS011;59609;52.430;4.668;2024-03-29T06:22:25;1.50;;;0.75;;
71777;SDS011;59609;52.430;4.668;2024-03-29T06:24:55;0.90;;;0.82;;
71777;SDS011;59609;52.430;4.668;2024-03-29T06:27:24;0.95;;;0.90;;
71777;SDS011;59609;52.430;4.668;2024-03-29T06:29:50;1.95;;;0.90;;
71777;SDS011;59609;52.430;4.668;2024-03-29T06:32:16;1.00;;;0.90;;
71777;SDS011;59609;52.430;4.668;2024-03-29T06:34:43;0.85;;;0.80;;
71777;SDS011;59609;52.430;4.668;2024-03-29T06:37:09;1.60;;;0.60;;
71777;SDS011;59609;52.430;4.668;2024-03-29T06:39:34;1.55;;;0.60;;
71777;SDS011;59609;52.430;4.668;2024-03-29T06:42:00;0.60;;;0.60;;
71777;SDS011;59609;52.430;4.668;2024-03-29T06:44:25;2.80;;;0.93;;
71777;SDS011;59609;52.430;4.668;2024-03-29T06:46:51;0.75;;;0.75;;
71777;SDS011;59609;52.430;4.668;2024-03-29T06:49:16;1.00;;;0.95;;
71777;SDS011;59609;52.430;4.668;2024-03-29T06:51:42;0.57;;;0.57;;
71777;SDS011;59609;52.430;4.668;2024-03-29T06:54:08;0.63;;;0.52;;
71777;SDS011;59609;52.430;4.668;2024-03-29T06:56:34;2.97;;;0.90;;
71777;SDS011;59609;52.430;4.668;2024-03-29T06:58:59;0.60;;;0.60;;
71777;SDS011;59609;52.430;4.668;2024-03-29T07:01:25;0.75;;;0.38;;
71777;SDS011;59609;52.430;4.668;2024-03-29T07:03:50;0.80;;;0.80;;
71777;SDS011;59609;52.430;4.668;2024-03-29T07:06:16;0.75;;;0.60;;
71777;SDS011;59609;52.430;4.668;2024-03-29T07:08:41;1.73;;;0.73;;
71777;SDS011;59609;52.430;4.668;2024-03-29T07:11:06;1.17;;;0.73;;
71777;SDS011;59609;52.430;4.668;2024-03-29T07:13:32;1.23;;;0.68;;
71777;SDS011;59609;52.430;4.668;2024-03-29T07:16:00;2.78;;;0.95;;
71777;SDS011;59609;52.430;4.668;2024-03-29T07:18:26;0.85;;;0.85;;
71777;SDS011;59609;52.430;4.668;2024-03-29T07:20:52;2.05;;;1.10;;
71777;SDS011;59609;52.430;4.668;2024-03-29T07:23:18;1.70;;;0.80;;
71777;SDS011;59609;52.430;4.668;2024-03-29T07:26:05;0.57;;;0.57;;
71777;SDS011;59609;52.430;4.668;2024-03-29T07:28:30;1.52;;;1.38;;
71777;SDS011;59609;52.430;4.668;2024-03-29T07:30:56;0.77;;;0.63;;
71777;SDS011;59609;52.430;4.668;2024-03-29T07:33:22;3.13;;;0.57;;
71777;SDS011;59609;52.430;4.668;2024-03-29T07:35:51;0.65;;;0.30;;
71777;SDS011;59609;52.430;4.668;2024-03-29T07:38:20;2.10;;;0.60;;
71777;SDS011;59609;52.430;4.668;2024-03-29T07:40:49;2.65;;;0.88;;
71777;SDS011;59609;52.430;4.668;2024-03-29T07:43:15;1.55;;;0.60;;
71777;SDS011;59609;52.430;4.668;2024-03-29T07:45:41;2.67;;;0.90;;
71777;SDS011;59609;52.430;4.668;2024-03-29T07:48:11;1.38;;;0.60;;
71777;SDS011;59609;52.430;4.668;2024-03-29T07:50:41;0.70;;;0.60;;
71777;SDS011;59609;52.430;4.668;2024-03-29T07:53:07;1.00;;;0.85;;
71777;SDS011;59609;52.430;4.668;2024-03-29T07:55:33;0.73;;;0.73;;
71777;SDS011;59609;52.430;4.668;2024-03-29T07:58:00;0.80;;;0.80;;
71777;SDS011;59609;52.430;4.668;2024-03-29T08:00:25;1.42;;;0.70;;
71777;SDS011;59609;52.430;4.668;2024-03-29T08:02:51;1.33;;;0.77;;
71777;SDS011;59609;52.430;4.668;2024-03-29T08:05:18;1.13;;;0.93;;
71777;SDS011;59609;52.430;4.668;2024-03-29T08:07:45;2.42;;;0.50;;
71777;SDS011;59609;52.430;4.668;2024-03-29T08:10:10;1.02;;;0.90;;
71777;SDS011;59609;52.430;4.668;2024-03-29T08:12:36;0.77;;;0.77;;
71777;SDS011;59609;52.430;4.668;2024-03-29T08:15:02;1.80;;;1.20;;
71777;SDS011;59609;52.430;4.668;2024-03-29T08:17:28;2.08;;;0.90;;
71777;SDS011;59609;52.430;4.668;2024-03-29T08:19:53;1.33;;;0.75;;
71777;SDS011;59609;52.430;4.668;2024-03-29T08:22:19;2.00;;;0.90;;
71777;SDS011;59609;52.430;4.668;2024-03-29T08:24:44;1.85;;;1.05;;
71777;SDS011;59609;52.430;4.668;2024-03-29T08:27:10;1.27;;;0.75;;
71777;SDS011;59609;52.430;4.668;2024-03-29T08:29:35;1.45;;;1.35;;
71777;SDS011;59609;52.430;4.668;2024-03-29T08:32:01;1.92;;;0.40;;
71777;SDS011;59609;52.430;4.668;2024-03-29T08:34:26;0.75;;;0.75;;
71777;SDS011;59609;52.430;4.668;2024-03-29T08:36:55;1.45;;;0.93;;
71777;SDS011;59609;52.430;4.668;2024-03-29T08:39:21;5.22;;;0.88;;
71777;SDS011;59609;52.430;4.668;2024-03-29T08:41:46;0.73;;;0.73;;
71777;SDS011;59609;52.430;4.668;2024-03-29T08:44:12;1.00;;;0.90;;
71777;SDS011;59609;52.430;4.668;2024-03-29T08:46:37;0.77;;;0.77;;
71777;SDS011;59609;52.430;4.668;2024-03-29T08:49:02;1.58;;;1.20;;
71777;SDS011;59609;52.430;4.668;2024-03-29T08:51:28;1.20;;;1.10;;
71777;SDS011;59609;52.430;4.668;2024-03-29T08:53:54;2.55;;;1.10;;
71777;SDS011;59609;52.430;4.668;2024-03-29T08:56:19;2.45;;;1.10;;
71777;SDS011;59609;52.430;4.668;2024-03-29T08:58:45;2.38;;;1.02;;
71777;SDS011;59609;52.430;4.668;2024-03-29T09:01:12;0.73;;;0.73;;
71777;SDS011;59609;52.430;4.668;2024-03-29T09:03:39;0.90;;;0.90;;
71777;SDS011;59609;52.430;4.668;2024-03-29T09:06:05;2.55;;;0.90;;
71777;SDS011;59609;52.430;4.668;2024-03-29T09:08:30;1.33;;;1.20;;
71777;SDS011;59609;52.430;4.668;2024-03-29T09:10:55;1.70;;;1.10;;
71777;SDS011;59609;52.430;4.668;2024-03-29T09:13:21;1.42;;;0.60;;
71777;SDS011;59609;52.430;4.668;2024-03-29T09:15:46;4.30;;;1.20;;
71777;SDS011;59609;52.430;4.668;2024-03-29T09:18:12;1.73;;;0.95;;
71777;SDS011;59609;52.430;4.668;2024-03-29T09:20:58;5.38;;;1.90;;
71777;SDS011;59609;52.430;4.668;2024-03-29T09:23:25;1.50;;;1.40;;
71777;SDS011;59609;52.430;4.668;2024-03-29T09:25:53;2.05;;;1.40;;
71777;SDS011;59609;52.430;4.668;2024-03-29T09:28:18;1.50;;;1.40;;
71777;SDS011;59609;52.430;4.668;2024-03-29T09:30:45;2.05;;;1.88;;
71777;SDS011;59609;52.430;4.668;2024-03-29T09:33:12;1.73;;;1.60;;
71777;SDS011;59609;52.430;4.668;2024-03-29T09:35:37;3.10;;;1.63;;
71777;SDS011;59609;52.430;4.668;2024-03-29T09:38:03;3.00;;;2.25;;
71777;SDS011;59609;52.430;4.668;2024-03-29T09:40:29;2.00;;;1.50;;
71777;SDS011;59609;52.430;4.668;2024-03-29T09:42:55;2.05;;;1.48;;
71777;SDS011;59609;52.430;4.668;2024-03-29T09:45:28;2.45;;;1.40;;
71777;SDS011;59609;52.430;4.668;2024-03-29T09:47:58;3.55;;;1.75;;
71777;SDS011;59609;52.430;4.668;2024-03-29T09:50:26;2.38;;;1.58;;
71777;SDS011;59609;52.430;4.668;2024-03-29T09:52:52;2.00;;;1.52;;
71777;SDS011;59609;52.430;4.668;2024-03-29T09:55:20;3.08;;;1.60;;
71777;SDS011;59609;52.430;4.668;2024-03-29T09:57:46;3.45;;;1.55;;
71777;SDS011;59609;52.430;4.668;2024-03-29T10:00:12;2.78;;;1.77;;
71777;SDS011;59609;52.430;4.668;2024-03-29T10:02:37;4.03;;;1.70;;
71777;SDS011;59609;52.430;4.668;2024-03-29T10:05:04;2.00;;;1.80;;
71777;SDS011;59609;52.430;4.668;2024-03-29T10:10:01;2.58;;;1.75;;
71777;SDS011;59609;52.430;4.668;2024-03-29T10:12:28;2.25;;;2.05;;
71777;SDS011;59609;52.430;4.668;2024-03-29T10:14:54;2.92;;;2.08;;
71777;SDS011;59609;52.430;4.668;2024-03-29T10:17:30;5.20;;;2.50;;
71777;SDS011;59609;52.430;4.668;2024-03-29T10:20:01;2.55;;;2.35;;
71777;SDS011;59609;52.430;4.668;2024-03-29T10:22:35;2.53;;;2.33;;
71777;SDS011;59609;52.430;4.668;2024-03-29T10:25:01;2.40;;;2.20;;
71777;SDS011;59609;52.430;4.668;2024-03-29T10:27:27;3.03;;;1.85;;
71777;SDS011;59609;52.430;4.668;2024-03-29T10:29:54;3.63;;;2.22;;
71777;SDS011;59609;52.430;4.668;2024-03-29T10:32:20;3.20;;;2.20;;
71777;SDS011;59609;52.430;4.668;2024-03-29T10:34:45;2.95;;;2.03;;
71777;SDS011;59609;52.430;4.668;2024-03-29T10:37:13;1.75;;;1.65;;
71777;SDS011;59609;52.430;4.668;2024-03-29T10:39:44;3.58;;;1.80;;
71777;SDS011;59609;52.430;4.668;2024-03-29T10:42:09;3.33;;;1.98;;
71777;SDS011;59609;52.430;4.668;2024-03-29T10:44:37;2.72;;;1.55;;
71777;SDS011;59609;52.430;4.668;2024-03-29T10:49:31;5.10;;;1.85;;
71777;SDS011;59609;52.430;4.668;2024-03-29T10:51:59;1.40;;;1.30;;
71777;SDS011;59609;52.430;4.668;2024-03-29T10:54:24;1.13;;;1.00;;
71777;SDS011;59609;52.430;4.668;2024-03-29T10:56:58;2.38;;;1.10;;
71777;SDS011;59609;52.430;4.668;2024-03-29T11:02:05;0.95;;;0.93;;
71777;SDS011;59609;52.430;4.668;2024-03-29T11:04:37;1.00;;;1.00;;
71777;SDS011;59609;52.430;4.668;2024-03-29T11:07:06;1.77;;;1.05;;
71777;SDS011;59609;52.430;4.668;2024-03-29T11:09:35;1.80;;;1.33;;
71777;SDS011;59609;52.430;4.668;2024-03-29T11:12:03;1.73;;;1.63;;
71777;SDS011;59609;52.430;4.668;2024-03-29T11:14:37;2.47;;;1.65;;
71777;SDS011;59609;52.430;4.668;2024-03-29T11:17:07;1.33;;;0.90;;
71777;SDS011;59609;52.430;4.668;2024-03-29T11:19:34;1.30;;;1.30;;
71777;SDS011;59609;52.430;4.668;2024-03-29T11:22:00;4.93;;;2.00;;
71777;SDS011;59609;52.430;4.668;2024-03-29T11:24:27;1.88;;;0.90;;
71777;SDS011;59609;52.430;4.668;2024-03-29T11:26:54;1.58;;;1.48;;
71777;SDS011;59609;52.430;4.668;2024-03-29T11:29:20;1.52;;;1.42;;
71777;SDS011;59609;52.430;4.668;2024-03-29T11:31:46;2.20;;;2.10;;
71777;SDS011;59609;52.430;4.668;2024-03-29T11:34:14;2.20;;;2.05;;
71777;SDS011;59609;52.430;4.668;2024-03-29T11:36:44;3.25;;;1.70;;
71777;SDS011;59609;52.430;4.668;2024-03-29T11:39:19;2.25;;;2.08;;
71777;SDS011;59609;52.430;4.668;2024-03-29T11:41:48;1.98;;;1.88;;
71777;SDS011;59609;52.430;4.668;2024-03-29T11:44:14;4.07;;;2.75;;
71777;SDS011;59609;52.430;4.668;2024-03-29T11:46:40;2.08;;;1.80;;
71777;SDS011;59609;52.430;4.668;2024-03-29T11:49:06;2.38;;;2.17;;
71777;SDS011;59609;52.430;4.668;2024-03-29T11:51:31;3.10;;;2.45;;
71777;SDS011;59609;52.430;4.668;2024-03-29T11:53:57;3.60;;;2.17;;
71777;SDS011;59609;52.430;4.668;2024-03-29T11:56:22;2.25;;;2.05;;
71777;SDS011;59609;52.430;4.668;2024-03-29T11:58:48;2.88;;;2.15;;
71777;SDS011;59609;52.430;4.668;2024-03-29T12:01:14;4.35;;;2.10;;
71777;SDS011;59609;52.430;4.668;2024-03-29T12:03:40;2.90;;;2.50;;
71777;SDS011;59609;52.430;4.668;2024-03-29T12:06:06;2.67;;;2.40;;
71777;SDS011;59609;52.430;4.668;2024-03-29T12:08:34;2.17;;;1.90;;
71777;SDS011;59609;52.430;4.668;2024-03-29T12:11:08;3.22;;;2.10;;
71777;SDS011;59609;52.430;4.668;2024-03-29T12:13:34;2.38;;;1.50;;
71777;SDS011;59609;52.430;4.668;2024-03-29T12:16:00;1.60;;;1.10;;
71777;SDS011;59609;52.430;4.668;2024-03-29T12:18:26;3.13;;;1.98;;
71777;SDS011;59609;52.430;4.668;2024-03-29T12:20:53;2.10;;;2.00;;
71777;SDS011;59609;52.430;4.668;2024-03-29T12:23:19;2.63;;;1.70;;
71777;SDS011;59609;52.430;4.668;2024-03-29T12:25:46;2.30;;;2.15;;
71777;SDS011;59609;52.430;4.668;2024-03-29T12:28:13;1.67;;;1.45;;
71777;SDS011;59609;52.430;4.668;2024-03-29T12:30:40;2.92;;;1.90;;
71777;SDS011;59609;52.430;4.668;2024-03-29T12:33:07;2.20;;;2.10;;
71777;SDS011;59609;52.430;4.668;2024-03-29T12:35:45;2.83;;;1.48;;
71777;SDS011;59609;52.430;4.668;2024-03-29T12:38:14;2.10;;;2.00;;
71777;SDS011;59609;52.430;4.668;2024-03-29T12:40:44;7.13;;;1.70;;
71777;SDS011;59609;52.430;4.668;2024-03-29T12:43:13;1.90;;;1.80;;
71777;SDS011;59609;52.430;4.668;2024-03-29T12:45:39;2.80;;;1.80;;
71777;SDS011;59609;52.430;4.668;2024-03-29T12:48:15;2.25;;;2.05;;
71777;SDS011;59609;52.430;4.668;2024-03-29T12:50:42;3.28;;;2.55;;
71777;SDS011;59609;52.430;4.668;2024-03-29T12:53:10;2.70;;;2.13;;
71777;SDS011;59609;52.430;4.668;2024-03-29T12:55:36;4.30;;;2.50;;
71777;SDS011;59609;52.430;4.668;2024-03-29T12:58:04;3.20;;;1.65;;
71777;SDS011;59609;52.430;4.668;2024-03-29T13:00:34;5.63;;;3.00;;
71777;SDS011;59609;52.430;4.668;2024-03-29T13:03:00;5.20;;;2.38;;
71777;SDS011;59609;52.430;4.668;2024-03-29T13:05:28;2.28;;;2.00;;
71777;SDS011;59609;52.430;4.668;2024-03-29T13:10:29;4.15;;;2.80;;
71777;SDS011;59609;52.430;4.668;2024-03-29T13:12:54;3.22;;;2.80;;
71777;SDS011;59609;52.430;4.668;2024-03-29T13:15:21;3.33;;;2.83;;
71777;SDS011;59609;52.430;4.668;2024-03-29T13:17:50;3.58;;;3.28;;
71777;SDS011;59609;52.430;4.668;2024-03-29T13:20:16;3.25;;;2.85;;
71777;SDS011;59609;52.430;4.668;2024-03-29T13:22:42;3.83;;;3.13;;
71777;SDS011;59609;52.430;4.668;2024-03-29T13:25:09;3.25;;;2.95;;
71777;SDS011;59609;52.430;4.668;2024-03-29T13:27:38;5.07;;;3.25;;
71777;SDS011;59609;52.430;4.668;2024-03-29T13:30:08;5.07;;;2.85;;
71777;SDS011;59609;52.430;4.668;2024-03-29T13:32:35;6.57;;;2.90;;
71777;SDS011;59609;52.430;4.668;2024-03-29T13:35:01;6.45;;;3.65;;
71777;SDS011;59609;52.430;4.668;2024-03-29T13:37:30;2.72;;;2.50;;
71777;SDS011;59609;52.430;4.668;2024-03-29T13:39:58;3.67;;;2.28;;
71777;SDS011;59609;52.430;4.668;2024-03-29T13:42:24;2.67;;;2.47;;
71777;SDS011;59609;52.430;4.668;2024-03-29T13:44:50;4.35;;;2.60;;
71777;SDS011;59609;52.430;4.668;2024-03-29T13:47:16;4.65;;;2.63;;
71777;SDS011;59609;52.430;4.668;2024-03-29T13:49:41;2.80;;;2.30;;
71777;SDS011;59609;52.430;4.668;2024-03-29T13:52:07;3.83;;;2.30;;
71777;SDS011;59609;52.430;4.668;2024-03-29T13:54:33;7.55;;;2.80;;
71777;SDS011;59609;52.430;4.668;2024-03-29T13:56:59;3.50;;;2.45;;
71777;SDS011;59609;52.430;4.668;2024-03-29T13:59:25;3.40;;;2.30;;
71777;SDS011;59609;52.430;4.668;2024-03-29T14:01:50;4.32;;;2.47;;
71777;SDS011;59609;52.430;4.668;2024-03-29T14:04:16;2.88;;;2.25;;
71777;SDS011;59609;52.430;4.668;2024-03-29T14:06:42;2.05;;;1.67;;
71777;SDS011;59609;52.430;4.668;2024-03-29T14:09:07;6.32;;;1.67;;
71777;SDS011;59609;52.430;4.668;2024-03-29T14:11:33;4.57;;;2.40;;
71777;SDS011;59609;52.430;4.668;2024-03-29T14:13:58;1.92;;;1.73;;
71777;SDS011;59609;52.430;4.668;2024-03-29T14:16:23;3.10;;;1.67;;
71777;SDS011;59609;52.430;4.668;2024-03-29T14:18:49;4.10;;;1.75;;
71777;SDS011;59609;52.430;4.668;2024-03-29T14:21:14;3.50;;;1.60;;
71777;SDS011;59609;52.430;4.668;2024-03-29T14:23:40;5.00;;;1.83;;
71777;SDS011;59609;52.430;4.668;2024-03-29T14:26:05;2.53;;;1.65;;
71777;SDS011;59609;52.430;4.668;2024-03-29T14:28:31;1.73;;;1.42;;
71777;SDS011;59609;52.430;4.668;2024-03-29T14:30:57;2.08;;;1.30;;
71777;SDS011;59609;52.430;4.668;2024-03-29T14:33:22;3.50;;;1.48;;
71777;SDS011;59609;52.430;4.668;2024-03-29T14:35:48;2.45;;;1.33;;
71777;SDS011;59609;52.430;4.668;2024-03-29T14:38:14;1.80;;;1.63;;
71777;SDS011;59609;52.430;4.668;2024-03-29T14:40:40;1.35;;;1.27;;
71777;SDS011;59609;52.430;4.668;2024-03-29T14:43:05;2.65;;;1.50;;
71777;SDS011;59609;52.430;4.668;2024-03-29T14:45:31;2.55;;;1.25;;
71777;SDS011;59609;52.430;4.668;2024-03-29T14:47:56;5.35;;;1.00;;
71777;SDS011;59609;52.430;4.668;2024-03-29T14:50:21;2.63;;;1.40;;
71777;SDS011;59609;52.430;4.668;2024-03-29T14:52:47;3.60;;;1.70;;
71777;SDS011;59609;52.430;4.668;2024-03-29T14:55:12;2.88;;;1.63;;